Meteo Giornale » Osservazioni meteo Madagascar » Antananarivo-Ivato
ore: 13:30 - Osservazioni Meteo Antananarivo-Ivato
Lat. 18° 48' S Lon. 47° 29' E Alt. 1279 metri s.l.m.
20 °C
Nuvoloso
Temp. 24 Ore
11 °C
21 °C
Sud/Sud-Est
20.3 Km/h
Dew point 9 °C
Umidità 49 %
Visibilità 10 Km
Il sole sorge alle ore 05:57
Il sole tramonta alle ore 17:42
| Data e Ora | Cielo e Fenomeni | T °C | DP °C | Um. % | Pres. hPa | Vis. km | Vento km/h | |
|---|---|---|---|---|---|---|---|---|
| Oggi h: 13:30 | Nuvoloso | 20 | 9 | 49 | 1026 | 10 | S/SE 20.3 | |
| Oggi h: 13:00 | Nuvoloso | 21 | 9 | 46 | 1027 | 10 | SE 20.3 | |
| Oggi h: 12:30 | Nuvoloso | 20 | 9 | 49 | 1027 | 10 | SE 20.3 | |
| Oggi h: 12:00 | Nuvoloso | 20 | 10 | 52 | 1027 | 10 | SE 20.3 | |
| Oggi h: 11:30 | Nuvoloso | 20 | 10 | 52 | 1028 | 10 | SE 16.7 | |
| Oggi h: 11:00 | Nuvoloso | 20 | 11 | 56 | 1028 | 10 | SE 20.3 | |
| Oggi h: 10:30 | Nuvoloso | 19 | 11 | 59 | 1028 | 10 | SE 18.5 | |
| Oggi h: 10:00 | Molto Nuvoloso | 18 | 11 | 63 | 1028 | 10 | SE 18.5 | |
| Oggi h: 09:30 | Molto Nuvoloso | 16 | 10 | 67 | 1029 | 10 | E 14.8 | |
| Oggi h: 09:00 | Molto Nuvoloso | 15 | 10 | 72 | 1028 | 10 | E/SE 18.5 | |
| Oggi h: 08:30 | Nuvoloso | 16 | 10 | 67 | 1028 | 10 | E 13 | |
| Oggi h: 08:00 | Nuvoloso | 15 | 10 | 72 | 1028 | 10 | E 13 | |
| Oggi h: 07:30 | Poco Nuvoloso | 13 | 12 | 93 | 1028 | 10 | E 11.1 | |
| Oggi h: 07:00 | Poco Nuvoloso | 12 | 12 | 100 | 1028 | 10 | N 5.5 | |
| Oggi h: 06:30 | Poco Nuvoloso | 11 | 11 | 100 | 1027 | 10 | E 7.4 | |
| Oggi h: 06:00 | Poco Nuvoloso | 11 | 11 | 100 | 1027 | 10 | N 5.5 | |
| Oggi h: 05:30 | Poco Nuvoloso | 11 | 11 | 100 | 1027 | 10 | N 5.5 | |
| Oggi h: 05:00 | Poco Nuvoloso | 11 | 11 | 100 | 1027 | 10 | SE 7.4 | |
| Oggi h: 04:30 | Poco Nuvoloso | 11 | 11 | 100 | 1027 | 10 | N 5.5 | |
| Oggi h: 04:00 | Nuvoloso | 12 | 12 | 100 | 1027 | 10 | N 5.5 | |
| Oggi h: 03:30 | Molto Nuvoloso | 12 | 12 | 100 | 1027 | 10 | E/NE 7.4 | |
| Oggi h: 03:00 | Molto Nuvoloso | 13 | 11 | 87 | 1027 | 10 | E 11.1 | |
| Oggi h: 02:30 | Molto Nuvoloso | 13 | 12 | 93 | 1027 | 10 | E 13 | |
| Oggi h: 02:00 | Molto Nuvoloso | 13 | 12 | 93 | 1027 | 10 | E 11.1 | |
| Oggi h: 01:30 | Molto Nuvoloso | 13 | 13 | 100 | 1027 | 10 | E 11.1 | |
| Oggi h: 01:00 | Molto Nuvoloso | 13 | 13 | 100 | 1027 | 10 | E 9.3 | |
| Oggi h: 00:30 | Pioviggine | 13 | 13 | 100 | 1028 | 10 | E 13 | |
| Oggi h: 00:00 | Molto Nuvoloso | 14 | 14 | 100 | 1028 | 10 | E 7.4 | |
| Ieri h: 23:30 | Pioviggine | 14 | 14 | 100 | 1028 | 10 | E 11.1 | |
| Ieri h: 23:00 | Molto Nuvoloso | 14 | 12 | 87 | 1028 | 10 | SE 11.1 | |
| Ieri h: 22:30 | Molto Nuvoloso | 14 | 12 | 87 | 1028 | 10 | E/SE 13 | |
| Ieri h: 22:00 | Molto Nuvoloso | 14 | 12 | 87 | 1028 | 10 | E/SE 18.5 | |
| Ieri h: 21:30 | Molto Nuvoloso | 14 | 12 | 87 | 1028 | 10 | SE 9.3 | |
| Ieri h: 21:00 | Molto Nuvoloso | 14 | 12 | 87 | 1028 | 10 | SE 18.5 | |
| Ieri h: 20:30 | Nuvoloso | 14 | 12 | 87 | 1028 | 10 | E/SE 20.3 | |
| Ieri h: 20:00 | Poco Nuvoloso | 14 | 12 | 87 | 1027 | 10 | E 20.3 | |
| Ieri h: 19:30 | Poco Nuvoloso | 14 | 12 | 87 | 1027 | 10 | E 16.7 | |
| Ieri h: 19:00 | Poco Nuvoloso | 15 | 12 | 82 | 1027 | 10 | E 13 | |
| Ieri h: 18:30 | Sereno | 16 | 12 | 77 | 1026 | 10 | E 18.5 | |
| Ieri h: 18:00 | Poco Nuvoloso | 16 | 12 | 77 | 1026 | 10 | E/SE 20.3 | |
| Ieri h: 17:30 | Poco Nuvoloso | 18 | 12 | 67 | 1026 | 10 | E 22.2 | |
| Ieri h: 17:00 | Poco Nuvoloso | 20 | 9 | 49 | 1026 | 10 | E 20.3 | |
| Ieri h: 16:30 | Nuvoloso | 20 | 9 | 49 | 1026 | 10 | E 22.2 | |
| Ieri h: 16:00 | Nuvoloso | 21 | 10 | 49 | 1026 | 10 | E/SE 16.7 | |
| Ieri h: 15:30 | Nuvoloso | 21 | 9 | 46 | 1025 | 10 | E/SE 20.3 | |
| Ieri h: 15:00 | Nuvoloso | 21 | 9 | 46 | 1026 | 10 | E/SE 20.3 | |
| Ieri h: 14:30 | Nuvoloso | 20 | 11 | 56 | 1026 | 10 | E/SE 13 | |
| Ieri h: 14:00 | Molto Nuvoloso | 19 | 11 | 59 | 1027 | 10 | E/SE 14.8 | |



